createdAt,value
2023-01-03T00:05:06.820Z,6.20
2023-01-03T00:11:17.790Z,5.80
2023-01-03T00:17:19.993Z,6.78
2023-01-03T00:23:21.844Z,6.82
2023-01-03T00:29:23.692Z,6.68
2023-01-03T00:35:25.456Z,6.68
2023-01-03T00:41:27.272Z,7.25
2023-01-03T00:47:29.029Z,6.40
2023-01-03T00:53:30.740Z,7.68
2023-01-03T00:59:32.516Z,7.40
2023-01-03T01:05:34.427Z,7.63
2023-01-03T01:11:36.222Z,8.27
2023-01-03T01:17:38.460Z,8.18
2023-01-03T01:23:41.477Z,9.38
2023-01-03T01:29:43.398Z,9.32
2023-01-03T01:35:45.268Z,9.40
2023-01-03T01:42:07.510Z,9.05
2023-01-03T01:48:13.293Z,9.77
2023-01-03T01:54:15.944Z,8.55
2023-01-03T02:00:18.176Z,9.90
2023-01-03T02:06:20.208Z,9.60
2023-01-03T02:12:49.331Z,10.43
2023-01-03T02:19:21.638Z,10.45
2023-01-03T02:25:35.765Z,11.30
2023-01-03T02:31:57.982Z,11.90
2023-01-03T02:38:35.826Z,13.25
2023-01-03T02:44:40.758Z,13.93
2023-01-03T02:50:52.154Z,13.35
2023-01-03T02:57:07.138Z,13.52
2023-01-03T03:03:14.342Z,14.57
2023-01-03T03:09:16.183Z,14.95
2023-01-03T03:15:23.003Z,17.58
2023-01-03T03:21:44.877Z,15.68
2023-01-03T03:28:07.380Z,13.20
2023-01-03T03:34:20.470Z,13.27
2023-01-03T03:40:43.982Z,13.88
2023-01-03T03:46:54.988Z,13.77
2023-01-03T03:53:05.072Z,13.70
2023-01-03T03:59:09.380Z,13.85
2023-01-03T04:05:13.215Z,14.88
2023-01-03T04:11:15.236Z,14.00
2023-01-03T04:17:17.229Z,16.08
2023-01-03T04:23:19.026Z,15.65
2023-01-03T04:29:20.737Z,15.07
2023-01-03T04:35:22.723Z,14.57
2023-01-03T04:41:24.521Z,13.52
2023-01-03T04:47:26.258Z,13.30
2023-01-03T04:53:28.110Z,13.05
2023-01-03T04:59:29.824Z,12.60
2023-01-03T05:05:31.588Z,12.52
2023-01-03T05:11:33.368Z,12.43
2023-01-03T05:17:35.118Z,12.52
2023-01-03T05:23:55.528Z,13.40
2023-01-03T05:29:57.701Z,13.85
2023-01-03T05:35:59.563Z,14.77
2023-01-03T05:42:01.364Z,18.27
2023-01-03T05:48:03.143Z,18.30
2023-01-03T05:54:05.140Z,19.60
2023-01-03T06:00:07.458Z,20.60
2023-01-03T06:06:11.946Z,21.17
2023-01-03T06:12:13.763Z,23.02
2023-01-03T06:18:15.491Z,23.35
2023-01-03T06:24:17.335Z,21.75
2023-01-03T06:30:19.237Z,22.33
2023-01-03T06:36:23.386Z,20.95
2023-01-03T06:42:40.281Z,21.50
2023-01-03T06:49:01.000Z,19.67
2023-01-03T06:55:03.226Z,20.05
2023-01-03T07:01:06.477Z,19.33
2023-01-03T07:07:08.327Z,18.27
2023-01-03T07:13:28.683Z,18.58
2023-01-03T07:19:30.436Z,19.55
2023-01-03T07:25:32.204Z,20.70
2023-01-03T07:31:34.283Z,19.15
2023-01-03T07:37:36.057Z,21.20
2023-01-03T07:43:40.248Z,21.77
2023-01-03T07:49:41.966Z,22.80
2023-01-03T07:55:45.465Z,21.98
2023-01-03T08:01:47.249Z,21.73
2023-01-03T08:07:50.607Z,21.83
2023-01-03T08:13:53.042Z,20.63
2023-01-03T08:19:54.793Z,21.95
2023-01-03T08:26:05.302Z,21.95
2023-01-03T08:32:07.284Z,20.38
2023-01-03T08:38:14.526Z,22.95
2023-01-03T08:44:16.438Z,20.38
2023-01-03T08:50:18.284Z,20.40
2023-01-03T08:56:21.170Z,18.77
2023-01-03T09:02:23.144Z,18.35
2023-01-03T09:08:25.023Z,18.13
2023-01-03T09:14:26.844Z,18.17
2023-01-03T09:20:28.568Z,15.98
2023-01-03T09:26:30.783Z,15.82
2023-01-03T09:32:32.533Z,14.98
2023-01-03T09:38:34.512Z,14.60
2023-01-03T09:44:37.680Z,14.13
2023-01-03T09:51:14.161Z,15.18
2023-01-03T09:57:28.156Z,15.02
2023-01-03T10:03:51.450Z,14.00
2023-01-03T10:09:59.921Z,12.85
2023-01-03T10:16:40.271Z,12.23
2023-01-03T10:22:42.229Z,10.23
2023-01-03T10:28:46.073Z,10.02
2023-01-03T10:35:04.585Z,9.87
2023-01-03T10:41:20.861Z,9.82
2023-01-03T10:47:25.554Z,8.93
2023-01-03T10:53:29.005Z,7.70
2023-01-03T10:59:32.294Z,7.28
2023-01-03T11:05:34.045Z,7.75
2023-01-03T11:11:40.083Z,6.45
2023-01-03T11:17:58.235Z,6.28
2023-01-03T11:24:13.114Z,6.30
2023-01-03T11:36:24.654Z,4.30
2023-01-03T11:42:50.534Z,4.05
2023-01-03T11:49:24.507Z,3.72
2023-01-03T11:55:56.686Z,4.28
2023-01-03T12:02:55.720Z,3.60
2023-01-03T12:09:11.169Z,3.90
2023-01-03T12:15:21.710Z,4.00
2023-01-03T12:21:33.233Z,3.20
2023-01-03T12:27:41.823Z,3.60
2023-01-03T12:33:50.629Z,3.30
2023-01-03T12:39:56.919Z,2.95
2023-01-03T12:46:21.245Z,2.80
2023-01-03T12:52:26.098Z,2.55
2023-01-03T12:58:42.807Z,2.58
2023-01-03T13:04:46.816Z,2.85
2023-01-03T13:10:50.945Z,2.93
2023-01-03T13:16:54.607Z,3.30
2023-01-03T13:23:03.111Z,2.77
2023-01-03T13:29:43.622Z,2.78
2023-01-03T13:35:45.385Z,2.70
2023-01-03T13:41:53.740Z,2.70
2023-01-03T13:47:56.368Z,2.83
2023-01-03T13:54:18.633Z,2.88
2023-01-03T14:00:22.897Z,2.50
2023-01-03T14:07:05.985Z,2.83
2023-01-03T14:13:41.650Z,2.42
2023-01-03T14:19:51.514Z,2.25
2023-01-03T14:25:54.466Z,2.92
2023-01-03T14:31:57.040Z,2.90
2023-01-03T14:38:04.697Z,2.80
2023-01-03T14:44:11.203Z,2.85
2023-01-03T14:50:26.561Z,2.92
2023-01-03T14:56:29.242Z,2.80
2023-01-03T15:02:37.146Z,2.60
2023-01-03T15:08:43.360Z,2.72
2023-01-03T15:14:45.126Z,3.30
2023-01-03T15:20:50.096Z,2.58
2023-01-03T15:26:53.815Z,2.53
2023-01-03T15:33:18.430Z,2.40
2023-01-03T15:39:25.932Z,2.67
2023-01-03T15:45:30.257Z,2.33
2023-01-03T15:51:31.982Z,2.70
2023-01-03T15:57:34.200Z,2.50
2023-01-03T16:03:36.089Z,2.47
2023-01-03T16:09:38.257Z,2.95
2023-01-03T16:15:43.616Z,2.60
2023-01-03T16:22:08.996Z,2.38
2023-01-03T16:28:12.237Z,2.95
2023-01-03T16:34:20.664Z,2.75
2023-01-03T16:40:22.458Z,2.58
2023-01-03T16:46:26.236Z,2.40
2023-01-03T16:52:37.785Z,2.93
2023-01-03T16:58:39.624Z,3.17
2023-01-03T17:04:41.885Z,3.45
2023-01-03T17:10:46.817Z,3.55
2023-01-03T17:16:49.766Z,3.13
2023-01-03T17:23:00.312Z,3.20
2023-01-03T17:29:04.942Z,2.83
2023-01-03T17:35:11.798Z,3.00
2023-01-03T17:41:18.526Z,2.95
2023-01-03T17:47:41.059Z,3.20
2023-01-03T17:53:44.212Z,2.80
2023-01-03T17:59:46.184Z,3.03
2023-01-03T18:05:47.983Z,2.25
2023-01-03T18:11:49.739Z,1.83
2023-01-03T18:17:52.456Z,2.35
2023-01-03T18:23:58.709Z,2.20
2023-01-03T18:30:00.433Z,1.95
2023-01-03T18:36:02.248Z,2.20
2023-01-03T18:42:23.081Z,2.55
2023-01-03T18:48:25.048Z,2.35
2023-01-03T18:54:26.951Z,2.72
2023-01-03T19:00:28.704Z,2.70
2023-01-03T19:06:31.584Z,3.50
2023-01-03T19:12:38.492Z,3.70
2023-01-03T19:18:40.327Z,4.22
2023-01-03T19:24:42.193Z,3.08
2023-01-03T19:30:46.472Z,3.00
2023-01-03T19:36:49.640Z,2.38
2023-01-03T19:42:54.617Z,2.03
2023-01-03T19:48:56.368Z,2.38
2023-01-03T19:54:58.151Z,2.30
2023-01-03T20:01:00.147Z,1.70
2023-01-03T20:07:01.869Z,1.85
2023-01-03T20:13:05.309Z,1.88
2023-01-03T20:19:15.249Z,1.63
2023-01-03T20:25:32.313Z,1.20
2023-01-03T20:31:34.146Z,1.30
2023-01-03T20:37:35.966Z,1.42
2023-01-03T20:43:37.923Z,1.60
2023-01-03T20:49:42.468Z,1.52
2023-01-03T20:55:44.375Z,1.40
2023-01-03T21:01:48.394Z,1.63
2023-01-03T21:08:08.938Z,1.30
2023-01-03T21:14:10.686Z,1.20
2023-01-03T21:20:21.551Z,2.00
2023-01-03T21:26:23.268Z,1.20
2023-01-03T21:32:25.030Z,1.92
2023-01-03T21:38:26.815Z,1.60
2023-01-03T21:44:29.946Z,1.30
2023-01-03T21:50:32.718Z,1.48
2023-01-03T21:56:37.607Z,1.33
2023-01-03T22:03:00.407Z,1.10
2023-01-03T22:09:04.439Z,1.45
2023-01-03T22:15:06.816Z,1.33
2023-01-03T22:21:11.209Z,1.80
2023-01-03T22:27:12.936Z,1.27
2023-01-03T22:33:14.638Z,1.20
2023-01-03T22:39:16.372Z,1.20
2023-01-03T22:45:18.140Z,1.02
2023-01-03T22:51:21.775Z,1.00
2023-01-03T22:57:23.520Z,1.00
2023-01-03T23:03:25.248Z,1.52
2023-01-03T23:09:27.002Z,0.88
2023-01-03T23:15:30.957Z,1.17
2023-01-03T23:21:33.891Z,1.23
2023-01-03T23:27:35.742Z,0.93
2023-01-03T23:33:37.652Z,0.80
2023-01-03T23:39:39.934Z,0.95
2023-01-03T23:45:41.709Z,0.88
2023-01-03T23:51:43.544Z,0.88
2023-01-03T23:57:45.331Z,1.23
